sensor_id;sensor_type;location;lat;lon;timestamp;P1;durP1;ratioP1;P2;durP2;ratioP2
1679;SDS011;838;51.794;12.258;2024-03-08T00:02:03;20.50;;;12.73;;
1679;SDS011;838;51.794;12.258;2024-03-08T00:04:29;23.13;;;13.40;;
1679;SDS011;838;51.794;12.258;2024-03-08T00:06:54;20.30;;;12.83;;
1679;SDS011;838;51.794;12.258;2024-03-08T00:09:20;25.03;;;13.57;;
1679;SDS011;838;51.794;12.258;2024-03-08T00:11:46;21.30;;;13.83;;
1679;SDS011;838;51.794;12.258;2024-03-08T00:14:14;21.87;;;13.60;;
1679;SDS011;838;51.794;12.258;2024-03-08T00:16:39;23.03;;;15.17;;
1679;SDS011;838;51.794;12.258;2024-03-08T00:19:08;19.50;;;13.27;;
1679;SDS011;838;51.794;12.258;2024-03-08T00:21:34;23.23;;;13.73;;
1679;SDS011;838;51.794;12.258;2024-03-08T00:24:00;23.83;;;15.00;;
1679;SDS011;838;51.794;12.258;2024-03-08T00:26:26;25.17;;;13.87;;
1679;SDS011;838;51.794;12.258;2024-03-08T00:28:53;21.83;;;14.87;;
1679;SDS011;838;51.794;12.258;2024-03-08T00:31:19;22.33;;;14.33;;
1679;SDS011;838;51.794;12.258;2024-03-08T00:33:45;22.43;;;14.47;;
1679;SDS011;838;51.794;12.258;2024-03-08T00:36:11;22.07;;;14.10;;
1679;SDS011;838;51.794;12.258;2024-03-08T00:38:36;20.40;;;13.57;;
1679;SDS011;838;51.794;12.258;2024-03-08T00:41:02;24.07;;;14.07;;
1679;SDS011;838;51.794;12.258;2024-03-08T00:43:28;18.70;;;13.30;;
1679;SDS011;838;51.794;12.258;2024-03-08T00:45:57;22.50;;;14.10;;
1679;SDS011;838;51.794;12.258;2024-03-08T00:48:23;23.90;;;14.17;;
1679;SDS011;838;51.794;12.258;2024-03-08T00:50:49;23.37;;;13.97;;
1679;SDS011;838;51.794;12.258;2024-03-08T00:53:14;26.90;;;13.70;;
1679;SDS011;838;51.794;12.258;2024-03-08T00:55:40;22.93;;;14.40;;
1679;SDS011;838;51.794;12.258;2024-03-08T00:58:06;22.13;;;14.00;;
1679;SDS011;838;51.794;12.258;2024-03-08T01:00:33;25.90;;;14.83;;
1679;SDS011;838;51.794;12.258;2024-03-08T01:02:59;17.40;;;11.73;;
1679;SDS011;838;51.794;12.258;2024-03-08T01:05:25;21.70;;;13.00;;
1679;SDS011;838;51.794;12.258;2024-03-08T01:07:50;22.00;;;13.70;;
1679;SDS011;838;51.794;12.258;2024-03-08T01:10:17;22.10;;;13.73;;
1679;SDS011;838;51.794;12.258;2024-03-08T01:12:42;21.10;;;13.57;;
1679;SDS011;838;51.794;12.258;2024-03-08T01:15:09;23.50;;;13.20;;
1679;SDS011;838;51.794;12.258;2024-03-08T01:17:38;25.53;;;15.07;;
1679;SDS011;838;51.794;12.258;2024-03-08T01:20:04;21.60;;;14.33;;
1679;SDS011;838;51.794;12.258;2024-03-08T01:22:31;20.93;;;14.97;;
1679;SDS011;838;51.794;12.258;2024-03-08T01:24:57;22.33;;;13.20;;
1679;SDS011;838;51.794;12.258;2024-03-08T01:27:23;25.20;;;13.93;;
1679;SDS011;838;51.794;12.258;2024-03-08T01:29:49;21.93;;;12.80;;
1679;SDS011;838;51.794;12.258;2024-03-08T01:32:15;25.13;;;15.27;;
1679;SDS011;838;51.794;12.258;2024-03-08T01:34:41;24.67;;;13.83;;
1679;SDS011;838;51.794;12.258;2024-03-08T01:37:07;24.70;;;14.57;;
1679;SDS011;838;51.794;12.258;2024-03-08T01:39:33;21.83;;;14.80;;
1679;SDS011;838;51.794;12.258;2024-03-08T01:41:59;20.73;;;12.83;;
1679;SDS011;838;51.794;12.258;2024-03-08T01:44:25;21.47;;;14.97;;
1679;SDS011;838;51.794;12.258;2024-03-08T01:46:51;23.90;;;14.00;;
1679;SDS011;838;51.794;12.258;2024-03-08T01:49:18;23.10;;;14.60;;
1679;SDS011;838;51.794;12.258;2024-03-08T01:51:46;18.03;;;12.53;;
1679;SDS011;838;51.794;12.258;2024-03-08T01:54:13;21.53;;;13.37;;
1679;SDS011;838;51.794;12.258;2024-03-08T01:56:40;27.70;;;15.10;;
1679;SDS011;838;51.794;12.258;2024-03-08T01:59:07;22.00;;;14.70;;
1679;SDS011;838;51.794;12.258;2024-03-08T02:01:33;24.37;;;13.77;;
1679;SDS011;838;51.794;12.258;2024-03-08T02:03:59;23.97;;;14.10;;
1679;SDS011;838;51.794;12.258;2024-03-08T02:06:25;18.83;;;13.40;;
1679;SDS011;838;51.794;12.258;2024-03-08T02:08:51;21.80;;;13.50;;
1679;SDS011;838;51.794;12.258;2024-03-08T02:11:16;23.60;;;14.40;;
1679;SDS011;838;51.794;12.258;2024-03-08T02:13:43;21.67;;;13.33;;
1679;SDS011;838;51.794;12.258;2024-03-08T02:16:10;21.07;;;14.33;;
1679;SDS011;838;51.794;12.258;2024-03-08T02:18:36;24.70;;;14.57;;
1679;SDS011;838;51.794;12.258;2024-03-08T02:21:02;22.90;;;15.27;;
1679;SDS011;838;51.794;12.258;2024-03-08T02:23:29;21.27;;;14.00;;
1679;SDS011;838;51.794;12.258;2024-03-08T02:25:56;24.00;;;14.70;;
1679;SDS011;838;51.794;12.258;2024-03-08T02:28:22;21.70;;;13.70;;
1679;SDS011;838;51.794;12.258;2024-03-08T02:30:50;22.50;;;13.60;;
1679;SDS011;838;51.794;12.258;2024-03-08T02:33:19;26.00;;;15.67;;
1679;SDS011;838;51.794;12.258;2024-03-08T02:35:45;22.90;;;14.67;;
1679;SDS011;838;51.794;12.258;2024-03-08T02:38:15;25.93;;;15.30;;
1679;SDS011;838;51.794;12.258;2024-03-08T02:40:43;22.43;;;15.30;;
1679;SDS011;838;51.794;12.258;2024-03-08T02:43:10;21.77;;;14.30;;
1679;SDS011;838;51.794;12.258;2024-03-08T02:45:36;24.73;;;16.10;;
1679;SDS011;838;51.794;12.258;2024-03-08T02:48:03;22.83;;;14.90;;
1679;SDS011;838;51.794;12.258;2024-03-08T02:50:31;24.80;;;16.43;;
1679;SDS011;838;51.794;12.258;2024-03-08T02:52:57;24.27;;;15.67;;
1679;SDS011;838;51.794;12.258;2024-03-08T02:55:23;24.90;;;16.53;;
1679;SDS011;838;51.794;12.258;2024-03-08T02:57:51;27.90;;;17.07;;
1679;SDS011;838;51.794;12.258;2024-03-08T03:00:17;25.90;;;16.30;;
1679;SDS011;838;51.794;12.258;2024-03-08T03:02:44;29.50;;;16.07;;
1679;SDS011;838;51.794;12.258;2024-03-08T03:05:11;27.23;;;16.77;;
1679;SDS011;838;51.794;12.258;2024-03-08T03:07:37;25.03;;;16.47;;
1679;SDS011;838;51.794;12.258;2024-03-08T03:10:03;24.67;;;15.37;;
1679;SDS011;838;51.794;12.258;2024-03-08T03:12:30;27.97;;;16.83;;
1679;SDS011;838;51.794;12.258;2024-03-08T03:14:59;23.83;;;16.23;;
1679;SDS011;838;51.794;12.258;2024-03-08T03:17:25;28.77;;;17.23;;
1679;SDS011;838;51.794;12.258;2024-03-08T03:19:54;22.60;;;15.73;;
1679;SDS011;838;51.794;12.258;2024-03-08T03:22:20;24.07;;;15.73;;
1679;SDS011;838;51.794;12.258;2024-03-08T03:24:46;29.70;;;17.40;;
1679;SDS011;838;51.794;12.258;2024-03-08T03:27:15;27.47;;;17.13;;
1679;SDS011;838;51.794;12.258;2024-03-08T03:29:41;27.53;;;16.40;;
1679;SDS011;838;51.794;12.258;2024-03-08T03:32:11;22.90;;;14.80;;
1679;SDS011;838;51.794;12.258;2024-03-08T03:34:37;25.97;;;16.57;;
1679;SDS011;838;51.794;12.258;2024-03-08T03:37:03;23.17;;;15.03;;
1679;SDS011;838;51.794;12.258;2024-03-08T03:39:30;28.33;;;17.60;;
1679;SDS011;838;51.794;12.258;2024-03-08T03:42:13;23.23;;;14.93;;
1679;SDS011;838;51.794;12.258;2024-03-08T03:44:45;28.27;;;16.97;;
1679;SDS011;838;51.794;12.258;2024-03-08T03:47:12;27.77;;;18.73;;
1679;SDS011;838;51.794;12.258;2024-03-08T03:49:39;28.10;;;17.37;;
1679;SDS011;838;51.794;12.258;2024-03-08T03:52:05;28.03;;;17.27;;
1679;SDS011;838;51.794;12.258;2024-03-08T03:54:31;31.33;;;16.20;;
1679;SDS011;838;51.794;12.258;2024-03-08T03:56:58;26.93;;;16.03;;
1679;SDS011;838;51.794;12.258;2024-03-08T03:59:24;26.43;;;16.67;;
1679;SDS011;838;51.794;12.258;2024-03-08T04:01:49;31.27;;;17.23;;
1679;SDS011;838;51.794;12.258;2024-03-08T04:04:15;28.13;;;17.73;;
1679;SDS011;838;51.794;12.258;2024-03-08T04:06:41;27.53;;;16.47;;
1679;SDS011;838;51.794;12.258;2024-03-08T04:09:07;24.77;;;15.03;;
1679;SDS011;838;51.794;12.258;2024-03-08T04:11:33;33.67;;;15.43;;
1679;SDS011;838;51.794;12.258;2024-03-08T04:13:58;24.07;;;15.83;;
1679;SDS011;838;51.794;12.258;2024-03-08T04:16:24;21.63;;;14.40;;
1679;SDS011;838;51.794;12.258;2024-03-08T04:18:51;21.23;;;15.53;;
1679;SDS011;838;51.794;12.258;2024-03-08T04:21:17;28.27;;;15.97;;
1679;SDS011;838;51.794;12.258;2024-03-08T04:23:44;20.93;;;15.27;;
1679;SDS011;838;51.794;12.258;2024-03-08T04:26:10;26.23;;;15.90;;
1679;SDS011;838;51.794;12.258;2024-03-08T04:28:36;24.87;;;15.93;;
1679;SDS011;838;51.794;12.258;2024-03-08T04:31:03;28.23;;;14.70;;
1679;SDS011;838;51.794;12.258;2024-03-08T04:33:29;22.13;;;13.83;;
1679;SDS011;838;51.794;12.258;2024-03-08T04:35:54;29.40;;;16.17;;
1679;SDS011;838;51.794;12.258;2024-03-08T04:38:20;30.17;;;16.40;;
1679;SDS011;838;51.794;12.258;2024-03-08T04:40:50;24.20;;;15.77;;
1679;SDS011;838;51.794;12.258;2024-03-08T04:43:15;23.10;;;15.20;;
1679;SDS011;838;51.794;12.258;2024-03-08T04:45:43;21.57;;;15.97;;
1679;SDS011;838;51.794;12.258;2024-03-08T04:48:09;25.53;;;15.83;;
1679;SDS011;838;51.794;12.258;2024-03-08T04:50:36;27.30;;;16.40;;
1679;SDS011;838;51.794;12.258;2024-03-08T04:53:03;26.87;;;15.60;;
1679;SDS011;838;51.794;12.258;2024-03-08T04:55:29;24.93;;;16.23;;
1679;SDS011;838;51.794;12.258;2024-03-08T04:57:55;28.13;;;17.90;;
1679;SDS011;838;51.794;12.258;2024-03-08T05:00:21;32.20;;;16.47;;
1679;SDS011;838;51.794;12.258;2024-03-08T05:02:46;24.33;;;14.73;;
1679;SDS011;838;51.794;12.258;2024-03-08T05:05:12;22.63;;;14.77;;
1679;SDS011;838;51.794;12.258;2024-03-08T05:07:41;32.37;;;17.23;;
1679;SDS011;838;51.794;12.258;2024-03-08T05:10:08;28.43;;;17.90;;
1679;SDS011;838;51.794;12.258;2024-03-08T05:12:34;24.67;;;15.30;;
1679;SDS011;838;51.794;12.258;2024-03-08T05:15:00;34.30;;;15.83;;
1679;SDS011;838;51.794;12.258;2024-03-08T05:17:25;19.80;;;14.70;;
1679;SDS011;838;51.794;12.258;2024-03-08T05:19:51;25.17;;;15.20;;
1679;SDS011;838;51.794;12.258;2024-03-08T05:22:17;24.60;;;15.80;;
1679;SDS011;838;51.794;12.258;2024-03-08T05:24:43;23.50;;;16.93;;
1679;SDS011;838;51.794;12.258;2024-03-08T05:27:09;25.17;;;15.47;;
1679;SDS011;838;51.794;12.258;2024-03-08T05:29:36;24.73;;;15.80;;
1679;SDS011;838;51.794;12.258;2024-03-08T05:32:01;28.80;;;16.53;;
1679;SDS011;838;51.794;12.258;2024-03-08T05:34:28;25.87;;;16.73;;
1679;SDS011;838;51.794;12.258;2024-03-08T05:36:54;25.00;;;15.17;;
1679;SDS011;838;51.794;12.258;2024-03-08T05:39:20;29.23;;;17.20;;
1679;SDS011;838;51.794;12.258;2024-03-08T05:41:46;28.73;;;18.10;;
1679;SDS011;838;51.794;12.258;2024-03-08T05:44:12;29.10;;;16.40;;
1679;SDS011;838;51.794;12.258;2024-03-08T05:46:38;27.17;;;16.47;;
1679;SDS011;838;51.794;12.258;2024-03-08T05:49:05;32.70;;;18.03;;
1679;SDS011;838;51.794;12.258;2024-03-08T05:51:34;25.07;;;17.03;;
1679;SDS011;838;51.794;12.258;2024-03-08T05:54:03;23.00;;;15.87;;
1679;SDS011;838;51.794;12.258;2024-03-08T05:56:30;26.37;;;16.07;;
1679;SDS011;838;51.794;12.258;2024-03-08T05:58:57;25.10;;;16.10;;
1679;SDS011;838;51.794;12.258;2024-03-08T06:01:25;25.47;;;16.10;;
1679;SDS011;838;51.794;12.258;2024-03-08T06:03:54;28.10;;;17.10;;
1679;SDS011;838;51.794;12.258;2024-03-08T06:06:24;27.20;;;16.47;;
1679;SDS011;838;51.794;12.258;2024-03-08T06:08:51;32.07;;;20.40;;
1679;SDS011;838;51.794;12.258;2024-03-08T06:11:17;30.50;;;17.80;;
1679;SDS011;838;51.794;12.258;2024-03-08T06:13:44;28.27;;;17.03;;
1679;SDS011;838;51.794;12.258;2024-03-08T06:16:10;32.43;;;20.30;;
1679;SDS011;838;51.794;12.258;2024-03-08T06:18:39;31.07;;;20.30;;
1679;SDS011;838;51.794;12.258;2024-03-08T06:21:06;33.50;;;18.87;;
1679;SDS011;838;51.794;12.258;2024-03-08T06:23:32;30.90;;;19.33;;
1679;SDS011;838;51.794;12.258;2024-03-08T06:25:58;29.00;;;18.27;;
1679;SDS011;838;51.794;12.258;2024-03-08T06:28:24;31.47;;;19.83;;
1679;SDS011;838;51.794;12.258;2024-03-08T06:30:50;28.83;;;18.80;;
1679;SDS011;838;51.794;12.258;2024-03-08T06:33:17;27.07;;;19.30;;
1679;SDS011;838;51.794;12.258;2024-03-08T06:35:43;33.70;;;19.90;;
1679;SDS011;838;51.794;12.258;2024-03-08T06:38:09;33.13;;;20.00;;
1679;SDS011;838;51.794;12.258;2024-03-08T06:40:35;29.43;;;20.13;;
1679;SDS011;838;51.794;12.258;2024-03-08T06:43:00;26.73;;;17.60;;
1679;SDS011;838;51.794;12.258;2024-03-08T06:45:26;29.73;;;20.77;;
1679;SDS011;838;51.794;12.258;2024-03-08T06:47:53;29.30;;;18.27;;
1679;SDS011;838;51.794;12.258;2024-03-08T06:50:19;27.40;;;17.83;;
1679;SDS011;838;51.794;12.258;2024-03-08T06:52:45;30.20;;;18.13;;
1679;SDS011;838;51.794;12.258;2024-03-08T06:55:15;28.23;;;17.40;;
1679;SDS011;838;51.794;12.258;2024-03-08T06:57:42;28.43;;;17.47;;
1679;SDS011;838;51.794;12.258;2024-03-08T07:00:08;26.67;;;17.60;;
1679;SDS011;838;51.794;12.258;2024-03-08T07:02:43;27.07;;;18.73;;
1679;SDS011;838;51.794;12.258;2024-03-08T07:05:11;32.20;;;18.03;;
1679;SDS011;838;51.794;12.258;2024-03-08T07:07:37;25.90;;;17.93;;
1679;SDS011;838;51.794;12.258;2024-03-08T07:10:02;26.40;;;16.07;;
1679;SDS011;838;51.794;12.258;2024-03-08T07:12:29;29.10;;;18.27;;
1679;SDS011;838;51.794;12.258;2024-03-08T07:14:55;29.40;;;17.50;;
1679;SDS011;838;51.794;12.258;2024-03-08T07:17:20;28.43;;;17.87;;
1679;SDS011;838;51.794;12.258;2024-03-08T07:19:47;26.33;;;17.23;;
1679;SDS011;838;51.794;12.258;2024-03-08T07:22:15;32.73;;;19.20;;
1679;SDS011;838;51.794;12.258;2024-03-08T07:24:42;25.03;;;17.83;;
1679;SDS011;838;51.794;12.258;2024-03-08T07:27:37;25.43;;;17.53;;
1679;SDS011;838;51.794;12.258;2024-03-08T07:30:02;28.77;;;17.73;;
1679;SDS011;838;51.794;12.258;2024-03-08T07:32:29;25.20;;;16.07;;
1679;SDS011;838;51.794;12.258;2024-03-08T07:34:58;29.60;;;17.80;;
1679;SDS011;838;51.794;12.258;2024-03-08T07:37:23;25.97;;;18.23;;
1679;SDS011;838;51.794;12.258;2024-03-08T07:39:49;32.90;;;18.37;;
1679;SDS011;838;51.794;12.258;2024-03-08T07:42:15;26.10;;;17.73;;
1679;SDS011;838;51.794;12.258;2024-03-08T07:44:42;24.10;;;17.13;;
1679;SDS011;838;51.794;12.258;2024-03-08T07:47:08;28.20;;;16.70;;
1679;SDS011;838;51.794;12.258;2024-03-08T07:49:35;26.80;;;16.37;;
1679;SDS011;838;51.794;12.258;2024-03-08T07:52:02;31.57;;;19.27;;
1679;SDS011;838;51.794;12.258;2024-03-08T07:54:29;28.90;;;18.87;;
1679;SDS011;838;51.794;12.258;2024-03-08T07:56:55;23.37;;;14.90;;
1679;SDS011;838;51.794;12.258;2024-03-08T07:59:21;28.83;;;17.33;;
1679;SDS011;838;51.794;12.258;2024-03-08T08:01:47;30.70;;;17.97;;
1679;SDS011;838;51.794;12.258;2024-03-08T08:04:13;24.53;;;17.13;;
1679;SDS011;838;51.794;12.258;2024-03-08T08:06:39;28.80;;;18.70;;
1679;SDS011;838;51.794;12.258;2024-03-08T08:09:11;29.17;;;20.00;;
1679;SDS011;838;51.794;12.258;2024-03-08T08:11:42;33.30;;;17.63;;
1679;SDS011;838;51.794;12.258;2024-03-08T08:14:11;30.23;;;17.37;;
1679;SDS011;838;51.794;12.258;2024-03-08T08:16:37;32.37;;;20.33;;
1679;SDS011;838;51.794;12.258;2024-03-08T08:19:06;25.57;;;17.10;;
1679;SDS011;838;51.794;12.258;2024-03-08T08:21:36;30.93;;;19.37;;
1679;SDS011;838;51.794;12.258;2024-03-08T08:24:02;22.37;;;17.53;;
1679;SDS011;838;51.794;12.258;2024-03-08T08:26:29;32.63;;;19.30;;
1679;SDS011;838;51.794;12.258;2024-03-08T08:28:55;25.93;;;17.07;;
1679;SDS011;838;51.794;12.258;2024-03-08T08:31:20;26.63;;;16.63;;
1679;SDS011;838;51.794;12.258;2024-03-08T08:33:46;28.23;;;19.03;;
1679;SDS011;838;51.794;12.258;2024-03-08T08:36:14;29.40;;;18.10;;
1679;SDS011;838;51.794;12.258;2024-03-08T08:38:40;29.17;;;19.17;;
1679;SDS011;838;51.794;12.258;2024-03-08T08:41:09;29.57;;;18.77;;
1679;SDS011;838;51.794;12.258;2024-03-08T08:43:36;30.10;;;20.30;;
1679;SDS011;838;51.794;12.258;2024-03-08T08:46:01;30.40;;;17.90;;
1679;SDS011;838;51.794;12.258;2024-03-08T08:48:27;32.53;;;20.63;;
1679;SDS011;838;51.794;12.258;2024-03-08T08:50:56;27.30;;;18.60;;
1679;SDS011;838;51.794;12.258;2024-03-08T08:53:21;30.60;;;19.20;;
1679;SDS011;838;51.794;12.258;2024-03-08T08:55:47;29.50;;;19.60;;
1679;SDS011;838;51.794;12.258;2024-03-08T08:58:13;27.13;;;19.37;;
1679;SDS011;838;51.794;12.258;2024-03-08T09:00:39;22.63;;;17.40;;
1679;SDS011;838;51.794;12.258;2024-03-08T09:03:05;27.50;;;19.73;;
1679;SDS011;838;51.794;12.258;2024-03-08T09:05:32;25.20;;;17.63;;
1679;SDS011;838;51.794;12.258;2024-03-08T09:07:59;29.27;;;19.07;;
1679;SDS011;838;51.794;12.258;2024-03-08T09:10:25;25.77;;;19.50;;
1679;SDS011;838;51.794;12.258;2024-03-08T09:12:52;28.83;;;19.00;;
1679;SDS011;838;51.794;12.258;2024-03-08T09:15:18;23.70;;;17.07;;
1679;SDS011;838;51.794;12.258;2024-03-08T09:17:45;25.37;;;17.57;;
1679;SDS011;838;51.794;12.258;2024-03-08T09:20:12;30.13;;;19.23;;
1679;SDS011;838;51.794;12.258;2024-03-08T09:22:43;24.83;;;17.80;;
1679;SDS011;838;51.794;12.258;2024-03-08T09:25:09;26.80;;;18.53;;
1679;SDS011;838;51.794;12.258;2024-03-08T09:27:35;28.33;;;18.63;;
1679;SDS011;838;51.794;12.258;2024-03-08T09:30:00;26.53;;;17.93;;
1679;SDS011;838;51.794;12.258;2024-03-08T09:32:26;29.60;;;18.63;;
1679;SDS011;838;51.794;12.258;2024-03-08T09:34:52;24.10;;;15.47;;
1679;SDS011;838;51.794;12.258;2024-03-08T09:37:18;24.90;;;18.20;;
1679;SDS011;838;51.794;12.258;2024-03-08T09:39:44;24.87;;;18.63;;
1679;SDS011;838;51.794;12.258;2024-03-08T09:42:10;27.50;;;17.13;;
1679;SDS011;838;51.794;12.258;2024-03-08T09:44:39;28.80;;;19.37;;
1679;SDS011;838;51.794;12.258;2024-03-08T09:47:14;26.97;;;17.70;;
1679;SDS011;838;51.794;12.258;2024-03-08T09:49:41;25.30;;;18.87;;
1679;SDS011;838;51.794;12.258;2024-03-08T09:52:08;24.20;;;17.47;;
1679;SDS011;838;51.794;12.258;2024-03-08T09:54:35;24.53;;;17.03;;
1679;SDS011;838;51.794;12.258;2024-03-08T09:57:01;24.50;;;18.03;;
1679;SDS011;838;51.794;12.258;2024-03-08T09:59:31;27.30;;;18.00;;
1679;SDS011;838;51.794;12.258;2024-03-08T10:02:02;24.77;;;17.80;;
1679;SDS011;838;51.794;12.258;2024-03-08T10:04:28;23.33;;;17.00;;
1679;SDS011;838;51.794;12.258;2024-03-08T10:06:57;18.27;;;12.60;;
1679;SDS011;838;51.794;12.258;2024-03-08T10:09:24;23.00;;;14.27;;
1679;SDS011;838;51.794;12.258;2024-03-08T10:11:56;20.00;;;14.83;;
1679;SDS011;838;51.794;12.258;2024-03-08T10:14:23;18.47;;;12.47;;
1679;SDS011;838;51.794;12.258;2024-03-08T10:16:49;24.43;;;14.73;;
1679;SDS011;838;51.794;12.258;2024-03-08T10:19:15;25.20;;;16.40;;
1679;SDS011;838;51.794;12.258;2024-03-08T10:21:51;21.90;;;14.87;;
1679;SDS011;838;51.794;12.258;2024-03-08T10:24:19;19.20;;;13.97;;
1679;SDS011;838;51.794;12.258;2024-03-08T10:26:44;26.10;;;15.00;;
1679;SDS011;838;51.794;12.258;2024-03-08T10:29:11;25.83;;;16.50;;
1679;SDS011;838;51.794;12.258;2024-03-08T10:31:42;24.73;;;16.08;;
1679;SDS011;838;51.794;12.258;2024-03-08T10:34:11;23.57;;;14.20;;
1679;SDS011;838;51.794;12.258;2024-03-08T10:36:37;22.00;;;13.80;;
1679;SDS011;838;51.794;12.258;2024-03-08T10:39:07;20.70;;;14.83;;
1679;SDS011;838;51.794;12.258;2024-03-08T10:41:44;22.43;;;14.33;;
1679;SDS011;838;51.794;12.258;2024-03-08T10:44:49;22.40;;;14.57;;
1679;SDS011;838;51.794;12.258;2024-03-08T10:47:29;24.20;;;16.20;;
1679;SDS011;838;51.794;12.258;2024-03-08T10:50:14;17.50;;;12.73;;
1679;SDS011;838;51.794;12.258;2024-03-08T10:52:50;19.07;;;12.80;;
1679;SDS011;838;51.794;12.258;2024-03-08T10:55:19;20.83;;;15.50;;
1679;SDS011;838;51.794;12.258;2024-03-08T10:57:47;17.63;;;13.17;;
1679;SDS011;838;51.794;12.258;2024-03-08T11:00:13;24.53;;;16.80;;
1679;SDS011;838;51.794;12.258;2024-03-08T11:02:43;23.43;;;16.00;;
1679;SDS011;838;51.794;12.258;2024-03-08T11:05:10;21.60;;;16.27;;
1679;SDS011;838;51.794;12.258;2024-03-08T11:07:49;26.40;;;17.27;;
1679;SDS011;838;51.794;12.258;2024-03-08T11:10:19;26.10;;;17.07;;
1679;SDS011;838;51.794;12.258;2024-03-08T11:12:45;23.57;;;17.43;;
1679;SDS011;838;51.794;12.258;2024-03-08T11:15:13;26.67;;;16.77;;
1679;SDS011;838;51.794;12.258;2024-03-08T11:20:12;22.27;;;14.80;;
1679;SDS011;838;51.794;12.258;2024-03-08T11:25:30;22.50;;;14.27;;
1679;SDS011;838;51.794;12.258;2024-03-08T11:28:08;20.97;;;14.23;;
1679;SDS011;838;51.794;12.258;2024-03-08T11:33:24;20.60;;;15.73;;
1679;SDS011;838;51.794;12.258;2024-03-08T11:36:03;17.80;;;12.73;;
1679;SDS011;838;51.794;12.258;2024-03-08T11:38:49;23.90;;;16.50;;
1679;SDS011;838;51.794;12.258;2024-03-08T11:41:22;18.80;;;13.80;;
1679;SDS011;838;51.794;12.258;2024-03-08T11:43:49;23.83;;;15.13;;
1679;SDS011;838;51.794;12.258;2024-03-08T11:46:26;22.17;;;14.47;;
1679;SDS011;838;51.794;12.258;2024-03-08T11:48:54;20.43;;;14.00;;
1679;SDS011;838;51.794;12.258;2024-03-08T11:51:21;19.63;;;12.50;;
1679;SDS011;838;51.794;12.258;2024-03-08T11:53:48;21.00;;;13.00;;
1679;SDS011;838;51.794;12.258;2024-03-08T11:56:15;16.53;;;13.37;;
1679;SDS011;838;51.794;12.258;2024-03-08T11:58:41;17.90;;;12.40;;
1679;SDS011;838;51.794;12.258;2024-03-08T12:01:08;18.27;;;14.10;;
1679;SDS011;838;51.794;12.258;2024-03-08T12:03:37;20.20;;;13.73;;
1679;SDS011;838;51.794;12.258;2024-03-08T12:06:04;20.93;;;14.57;;
1679;SDS011;838;51.794;12.258;2024-03-08T12:08:32;20.07;;;14.77;;
1679;SDS011;838;51.794;12.258;2024-03-08T12:10:58;22.70;;;14.83;;
1679;SDS011;838;51.794;12.258;2024-03-08T12:13:27;22.53;;;13.10;;
1679;SDS011;838;51.794;12.258;2024-03-08T12:15:57;25.10;;;16.40;;
1679;SDS011;838;51.794;12.258;2024-03-08T12:18:27;25.03;;;16.03;;
1679;SDS011;838;51.794;12.258;2024-03-08T12:21:12;23.13;;;15.33;;
1679;SDS011;838;51.794;12.258;2024-03-08T12:23:45;26.80;;;17.07;;
1679;SDS011;838;51.794;12.258;2024-03-08T12:26:17;23.53;;;16.57;;
1679;SDS011;838;51.794;12.258;2024-03-08T12:28:48;22.43;;;16.60;;
1679;SDS011;838;51.794;12.258;2024-03-08T12:31:14;23.30;;;15.40;;
1679;SDS011;838;51.794;12.258;2024-03-08T12:33:54;26.30;;;17.33;;
1679;SDS011;838;51.794;12.258;2024-03-08T12:36:24;25.73;;;16.60;;
1679;SDS011;838;51.794;12.258;2024-03-08T12:38:50;24.37;;;15.50;;
1679;SDS011;838;51.794;12.258;2024-03-08T12:41:19;23.53;;;17.00;;
1679;SDS011;838;51.794;12.258;2024-03-08T12:43:46;23.43;;;17.00;;
1679;SDS011;838;51.794;12.258;2024-03-08T12:48:47;21.37;;;15.00;;
1679;SDS011;838;51.794;12.258;2024-03-08T12:51:16;26.33;;;16.30;;
1679;SDS011;838;51.794;12.258;2024-03-08T12:53:43;24.17;;;16.93;;
1679;SDS011;838;51.794;12.258;2024-03-08T12:56:10;24.17;;;16.50;;
1679;SDS011;838;51.794;12.258;2024-03-08T12:58:45;27.43;;;17.70;;
1679;SDS011;838;51.794;12.258;2024-03-08T13:01:11;21.87;;;15.33;;
1679;SDS011;838;51.794;12.258;2024-03-08T13:03:38;23.63;;;16.27;;
1679;SDS011;838;51.794;12.258;2024-03-08T13:06:05;21.60;;;15.40;;
1679;SDS011;838;51.794;12.258;2024-03-08T13:08:34;19.20;;;14.80;;
1679;SDS011;838;51.794;12.258;2024-03-08T13:11:09;21.50;;;15.40;;
1679;SDS011;838;51.794;12.258;2024-03-08T13:13:39;20.37;;;15.30;;
1679;SDS011;838;51.794;12.258;2024-03-08T13:16:06;21.97;;;15.30;;
1679;SDS011;838;51.794;12.258;2024-03-08T13:18:35;21.87;;;14.20;;
1679;SDS011;838;51.794;12.258;2024-03-08T13:21:01;20.47;;;14.27;;
1679;SDS011;838;51.794;12.258;2024-03-08T13:23:36;19.53;;;13.63;;
1679;SDS011;838;51.794;12.258;2024-03-08T13:26:09;21.63;;;14.00;;
1679;SDS011;838;51.794;12.258;2024-03-08T13:28:40;19.70;;;13.10;;
1679;SDS011;838;51.794;12.258;2024-03-08T13:31:13;18.70;;;12.70;;
1679;SDS011;838;51.794;12.258;2024-03-08T13:33:40;18.67;;;12.77;;
1679;SDS011;838;51.794;12.258;2024-03-08T13:36:07;22.40;;;13.80;;
1679;SDS011;838;51.794;12.258;2024-03-08T13:38:43;16.57;;;11.77;;
1679;SDS011;838;51.794;12.258;2024-03-08T13:41:13;19.00;;;12.23;;
1679;SDS011;838;51.794;12.258;2024-03-08T13:43:40;15.00;;;10.57;;
1679;SDS011;838;51.794;12.258;2024-03-08T13:46:06;21.50;;;13.00;;
1679;SDS011;838;51.794;12.258;2024-03-08T13:48:35;18.23;;;13.00;;
1679;SDS011;838;51.794;12.258;2024-03-08T13:51:02;14.60;;;10.50;;
1679;SDS011;838;51.794;12.258;2024-03-08T13:53:30;17.33;;;12.03;;
1679;SDS011;838;51.794;12.258;2024-03-08T13:55:57;15.60;;;10.00;;
1679;SDS011;838;51.794;12.258;2024-03-08T13:58:26;20.23;;;12.67;;
1679;SDS011;838;51.794;12.258;2024-03-08T14:00:52;18.60;;;12.17;;
1679;SDS011;838;51.794;12.258;2024-03-08T14:03:18;17.80;;;9.70;;
1679;SDS011;838;51.794;12.258;2024-03-08T14:05:43;16.83;;;10.80;;
1679;SDS011;838;51.794;12.258;2024-03-08T14:08:10;17.00;;;10.87;;
1679;SDS011;838;51.794;12.258;2024-03-08T14:10:37;17.47;;;10.97;;
1679;SDS011;838;51.794;12.258;2024-03-08T14:13:03;19.67;;;11.97;;
1679;SDS011;838;51.794;12.258;2024-03-08T14:15:32;16.23;;;11.13;;
1679;SDS011;838;51.794;12.258;2024-03-08T14:17:59;15.50;;;11.43;;
1679;SDS011;838;51.794;12.258;2024-03-08T14:20:26;17.10;;;11.33;;
1679;SDS011;838;51.794;12.258;2024-03-08T14:22:52;17.33;;;11.63;;
1679;SDS011;838;51.794;12.258;2024-03-08T14:25:19;18.37;;;11.53;;
1679;SDS011;838;51.794;12.258;2024-03-08T14:27:48;17.23;;;11.17;;
1679;SDS011;838;51.794;12.258;2024-03-08T14:30:15;21.97;;;12.00;;
1679;SDS011;838;51.794;12.258;2024-03-08T14:33:03;13.23;;;9.73;;
1679;SDS011;838;51.794;12.258;2024-03-08T14:35:34;16.23;;;10.70;;
1679;SDS011;838;51.794;12.258;2024-03-08T14:38:01;18.47;;;10.43;;
1679;SDS011;838;51.794;12.258;2024-03-08T14:40:26;13.93;;;10.40;;
1679;SDS011;838;51.794;12.258;2024-03-08T14:42:52;16.30;;;11.03;;
1679;SDS011;838;51.794;12.258;2024-03-08T14:45:18;15.47;;;10.30;;
1679;SDS011;838;51.794;12.258;2024-03-08T14:47:47;15.73;;;10.77;;
1679;SDS011;838;51.794;12.258;2024-03-08T14:50:17;16.70;;;9.97;;
1679;SDS011;838;51.794;12.258;2024-03-08T14:52:44;13.43;;;9.47;;
1679;SDS011;838;51.794;12.258;2024-03-08T14:55:13;17.83;;;10.97;;
1679;SDS011;838;51.794;12.258;2024-03-08T14:57:44;16.33;;;10.40;;
1679;SDS011;838;51.794;12.258;2024-03-08T15:00:11;15.37;;;9.60;;
1679;SDS011;838;51.794;12.258;2024-03-08T15:02:42;17.60;;;10.83;;